createdAt,value
2018-03-26T00:00:06.675Z,8.9
2018-03-26T00:01:08.292Z,9.0
2018-03-26T00:02:10.080Z,9.0
2018-03-26T00:03:11.732Z,9.0
2018-03-26T00:04:13.547Z,9.0
2018-03-26T00:05:15.158Z,8.9
2018-03-26T00:06:16.775Z,9.0
2018-03-26T00:07:18.389Z,8.9
2018-03-26T00:08:19.995Z,9.0
2018-03-26T00:09:21.602Z,8.9
2018-03-26T00:10:23.215Z,8.9
2018-03-26T00:11:24.843Z,8.9
2018-03-26T00:12:26.462Z,8.9
2018-03-26T00:13:28.072Z,8.9
2018-03-26T00:14:29.687Z,8.9
2018-03-26T00:15:31.297Z,8.8
2018-03-26T00:16:32.917Z,8.8
2018-03-26T00:17:34.537Z,8.8
2018-03-26T00:18:36.151Z,9.0
2018-03-26T00:19:37.758Z,8.8
2018-03-26T00:20:39.368Z,8.8
2018-03-26T00:21:40.985Z,8.8
2018-03-26T00:22:42.595Z,8.8
2018-03-26T00:23:44.208Z,8.8
2018-03-26T00:24:45.819Z,8.7
2018-03-26T00:25:47.439Z,8.9
2018-03-26T00:26:49.049Z,8.8
2018-03-26T00:27:50.660Z,8.8
2018-03-26T00:28:52.269Z,8.8
2018-03-26T00:29:53.885Z,8.7
2018-03-26T00:30:55.488Z,8.8
2018-03-26T00:31:57.101Z,8.8
2018-03-26T00:32:58.711Z,8.7
2018-03-26T00:34:00.323Z,8.7
2018-03-26T00:35:01.933Z,8.8
2018-03-26T00:36:03.548Z,8.7
2018-03-26T00:37:05.166Z,8.8
2018-03-26T00:38:06.777Z,8.7
2018-03-26T00:39:08.388Z,8.7
2018-03-26T00:40:09.999Z,8.7
2018-03-26T00:41:11.609Z,8.8
2018-03-26T00:42:13.216Z,8.7
2018-03-26T00:43:14.826Z,8.7
2018-03-26T00:44:16.474Z,8.7
2018-03-26T00:45:18.083Z,8.7
2018-03-26T00:46:19.688Z,8.7
2018-03-26T00:47:21.295Z,8.7
2018-03-26T00:48:22.910Z,8.6
2018-03-26T00:49:24.521Z,8.7
2018-03-26T00:50:26.129Z,8.6
2018-03-26T00:51:27.741Z,8.7
2018-03-26T00:52:29.353Z,8.7
2018-03-26T00:53:30.960Z,8.6
2018-03-26T00:54:32.573Z,8.6
2018-03-26T00:55:34.179Z,8.7
2018-03-26T00:56:35.790Z,8.6
2018-03-26T00:57:37.403Z,8.7
2018-03-26T00:58:39.016Z,8.6
2018-03-26T00:59:40.645Z,8.7
2018-03-26T01:00:42.258Z,8.7
2018-03-26T01:01:44.848Z,8.6
2018-03-26T01:02:46.461Z,8.6
2018-03-26T01:03:48.074Z,8.6
2018-03-26T01:04:49.679Z,8.6
2018-03-26T01:05:51.352Z,8.6
2018-03-26T01:06:52.900Z,8.5
2018-03-26T01:07:54.508Z,8.6
2018-03-26T01:08:56.116Z,8.6
2018-03-26T01:09:57.730Z,8.6
2018-03-26T01:10:59.340Z,8.5
2018-03-26T01:12:00.948Z,8.5
2018-03-26T01:13:02.606Z,8.5
2018-03-26T01:14:04.168Z,8.5
2018-03-26T01:15:05.787Z,8.6
2018-03-26T01:16:07.408Z,8.5
2018-03-26T01:17:09.018Z,8.5
2018-03-26T01:18:10.632Z,8.5
2018-03-26T01:19:12.246Z,8.4
2018-03-26T01:20:13.853Z,8.5
2018-03-26T01:21:15.467Z,8.5
2018-03-26T01:22:17.077Z,8.5
2018-03-26T01:23:18.681Z,8.5
2018-03-26T01:24:20.300Z,8.4
2018-03-26T01:25:21.904Z,8.4
2018-03-26T01:26:23.512Z,8.4
2018-03-26T01:27:25.127Z,8.5
2018-03-26T01:28:26.734Z,8.4
2018-03-26T01:29:28.342Z,8.4
2018-03-26T01:30:29.960Z,8.4
2018-03-26T01:31:31.570Z,8.5
2018-03-26T01:32:33.214Z,8.4
2018-03-26T01:33:34.825Z,8.4
2018-03-26T01:34:36.473Z,8.4
2018-03-26T01:35:38.078Z,8.4
2018-03-26T01:36:39.688Z,8.4
2018-03-26T01:37:41.302Z,8.3
2018-03-26T01:38:42.911Z,8.3
2018-03-26T01:39:44.523Z,8.3
2018-03-26T01:40:46.138Z,8.4
2018-03-26T01:41:47.748Z,8.3
2018-03-26T01:42:49.353Z,8.4
2018-03-26T01:43:50.977Z,8.4
2018-03-26T01:44:52.588Z,8.2
2018-03-26T01:45:54.202Z,8.3
2018-03-26T01:46:55.808Z,8.2
2018-03-26T01:47:57.422Z,8.3
2018-03-26T01:48:59.031Z,8.3
2018-03-26T01:50:00.638Z,8.3
2018-03-26T01:51:02.247Z,8.3
2018-03-26T01:52:03.863Z,8.3
2018-03-26T01:53:05.490Z,8.2
2018-03-26T01:54:07.098Z,8.4
2018-03-26T01:55:08.730Z,8.2
2018-03-26T01:56:10.340Z,8.1
2018-03-26T01:57:11.946Z,8.2
2018-03-26T01:58:13.561Z,8.2
2018-03-26T01:59:15.166Z,8.2
2018-03-26T02:00:16.782Z,8.2
2018-03-26T02:01:18.395Z,8.1
2018-03-26T02:02:20.010Z,8.1
2018-03-26T02:03:21.623Z,8.2
2018-03-26T02:04:23.231Z,8.3
2018-03-26T02:05:24.845Z,8.2
2018-03-26T02:06:26.455Z,8.2
2018-03-26T02:07:28.061Z,8.1
2018-03-26T02:08:29.679Z,8.2
2018-03-26T02:09:31.297Z,8.2
2018-03-26T02:10:33.602Z,8.2
2018-03-26T02:11:35.213Z,8.0
2018-03-26T02:12:36.822Z,8.1
2018-03-26T02:13:38.434Z,8.1
2018-03-26T02:14:40.044Z,8.1
2018-03-26T02:15:41.654Z,8.1
2018-03-26T02:16:43.266Z,8.0
2018-03-26T02:17:44.874Z,8.1
2018-03-26T02:18:46.479Z,8.1
2018-03-26T02:19:48.091Z,8.0
2018-03-26T02:20:49.702Z,8.0
2018-03-26T02:21:51.315Z,8.1
2018-03-26T02:22:52.923Z,8.0
2018-03-26T02:23:54.534Z,8.0
2018-03-26T02:24:56.148Z,7.8
2018-03-26T02:25:57.754Z,8.0
2018-03-26T02:26:59.382Z,8.0
2018-03-26T02:28:00.991Z,8.0
2018-03-26T02:29:02.600Z,7.9
2018-03-26T02:30:04.215Z,8.0
2018-03-26T02:31:05.827Z,8.0
2018-03-26T02:32:07.436Z,7.9
2018-03-26T02:33:09.044Z,7.9
2018-03-26T02:34:10.656Z,7.9
2018-03-26T02:35:12.258Z,7.9
2018-03-26T02:36:13.873Z,7.9
2018-03-26T02:37:15.487Z,7.9
2018-03-26T02:38:17.106Z,8.0
2018-03-26T02:39:18.712Z,7.9
2018-03-26T02:40:20.313Z,7.9
2018-03-26T02:41:21.941Z,7.9
2018-03-26T02:42:23.563Z,8.0
2018-03-26T02:43:25.169Z,7.8
2018-03-26T02:44:26.784Z,7.9
2018-03-26T02:45:28.392Z,7.8
2018-03-26T02:46:30.020Z,7.9
2018-03-26T02:47:31.629Z,7.8
2018-03-26T02:48:33.238Z,7.9
2018-03-26T02:49:35.802Z,7.8
2018-03-26T02:50:37.410Z,7.8
2018-03-26T02:51:39.024Z,7.8
2018-03-26T02:52:40.636Z,7.8
2018-03-26T02:53:42.250Z,7.8
2018-03-26T02:54:43.853Z,7.9
2018-03-26T02:55:45.467Z,7.8
2018-03-26T02:56:47.077Z,7.8
2018-03-26T02:57:48.709Z,7.7
2018-03-26T02:58:50.341Z,7.8
2018-03-26T02:59:51.956Z,7.7
2018-03-26T03:00:53.578Z,7.7
2018-03-26T03:01:55.185Z,7.8
2018-03-26T03:02:56.795Z,7.8
2018-03-26T03:03:58.399Z,7.7
2018-03-26T03:05:00.010Z,7.8
2018-03-26T03:06:01.624Z,7.8
2018-03-26T03:07:03.247Z,7.7
2018-03-26T03:08:04.857Z,7.8
2018-03-26T03:09:06.483Z,7.7
2018-03-26T03:10:08.097Z,7.7
2018-03-26T03:11:09.736Z,7.8
2018-03-26T03:12:11.349Z,7.8
2018-03-26T03:13:12.962Z,7.8
2018-03-26T03:14:14.569Z,7.7
2018-03-26T03:15:16.191Z,7.7
2018-03-26T03:16:17.788Z,7.6
2018-03-26T03:17:19.396Z,7.7
2018-03-26T03:18:21.007Z,7.7
2018-03-26T03:19:22.625Z,7.7
2018-03-26T03:20:24.257Z,7.7
2018-03-26T03:21:25.864Z,7.7
2018-03-26T03:22:27.477Z,7.8
2018-03-26T03:23:29.083Z,7.7
2018-03-26T03:24:30.692Z,7.7
2018-03-26T03:25:32.302Z,7.7
2018-03-26T03:26:33.915Z,7.7
2018-03-26T03:27:35.526Z,7.7
2018-03-26T03:28:37.134Z,7.8
2018-03-26T03:29:38.749Z,7.7
2018-03-26T03:30:40.354Z,7.7
2018-03-26T03:31:41.961Z,7.7
2018-03-26T03:32:43.571Z,7.7
2018-03-26T03:33:45.171Z,7.7
2018-03-26T03:34:46.784Z,7.6
2018-03-26T03:35:48.394Z,7.6
2018-03-26T03:36:50.001Z,7.6
2018-03-26T03:37:51.621Z,7.6
2018-03-26T03:38:53.232Z,7.6
2018-03-26T03:39:54.884Z,7.6
2018-03-26T03:40:56.489Z,7.6
2018-03-26T03:41:58.098Z,7.6
2018-03-26T03:42:59.708Z,7.5
2018-03-26T03:44:01.320Z,7.5
2018-03-26T03:45:02.933Z,7.6
2018-03-26T03:46:04.535Z,7.6
2018-03-26T03:47:06.150Z,7.6
2018-03-26T03:48:07.758Z,7.5
2018-03-26T03:49:09.367Z,7.5
2018-03-26T03:50:10.981Z,7.5
2018-03-26T03:51:13.352Z,7.5
2018-03-26T03:52:14.956Z,7.6
2018-03-26T03:53:16.580Z,7.5
2018-03-26T03:54:18.194Z,7.6
2018-03-26T03:55:19.798Z,7.6
2018-03-26T03:56:21.407Z,7.5
2018-03-26T03:57:23.020Z,7.5
2018-03-26T03:58:24.626Z,7.4
2018-03-26T03:59:26.801Z,7.5
2018-03-26T04:00:28.401Z,7.5
2018-03-26T04:01:30.009Z,7.6
2018-03-26T04:02:31.622Z,7.5
2018-03-26T04:03:33.229Z,7.4
2018-03-26T04:04:34.840Z,7.5
2018-03-26T04:05:36.456Z,7.5
2018-03-26T04:06:38.062Z,7.4
2018-03-26T04:07:39.673Z,7.5
2018-03-26T04:08:41.291Z,7.4
2018-03-26T04:09:42.889Z,7.5
2018-03-26T04:10:44.502Z,7.4
2018-03-26T04:11:46.118Z,7.4
2018-03-26T04:12:47.768Z,7.3
2018-03-26T04:13:49.338Z,7.4
2018-03-26T04:14:51.572Z,7.5
2018-03-26T04:15:53.184Z,7.4
2018-03-26T04:16:54.796Z,7.4
2018-03-26T04:17:56.409Z,7.4
2018-03-26T04:18:58.010Z,7.4
2018-03-26T04:19:59.624Z,7.4
2018-03-26T04:21:01.227Z,7.3
2018-03-26T04:22:02.842Z,7.3
2018-03-26T04:23:04.452Z,7.3
2018-03-26T04:24:06.058Z,7.3
2018-03-26T04:25:07.672Z,7.4
2018-03-26T04:26:09.278Z,7.3
2018-03-26T04:27:10.887Z,7.3
2018-03-26T04:28:12.499Z,7.4
2018-03-26T04:29:14.133Z,7.3
2018-03-26T04:30:15.751Z,7.3
2018-03-26T04:31:17.359Z,7.3
2018-03-26T04:32:18.967Z,7.3
2018-03-26T04:33:20.576Z,7.2
2018-03-26T04:34:22.183Z,7.2
2018-03-26T04:35:23.794Z,7.1
2018-03-26T04:36:25.398Z,7.2
2018-03-26T04:37:27.011Z,7.1
2018-03-26T04:38:28.628Z,7.1
2018-03-26T04:39:30.868Z,7.1
2018-03-26T04:40:32.482Z,7.2
2018-03-26T04:41:34.088Z,7.1
2018-03-26T04:42:35.701Z,7.1
2018-03-26T04:43:37.308Z,7.1
2018-03-26T04:44:38.920Z,7.0
2018-03-26T04:45:40.525Z,6.9
2018-03-26T04:46:42.138Z,6.9
2018-03-26T04:47:43.751Z,7.0
2018-03-26T04:48:45.366Z,6.8
2018-03-26T04:49:46.971Z,6.9
2018-03-26T04:50:48.582Z,6.9
2018-03-26T04:51:50.190Z,6.9
2018-03-26T04:52:51.799Z,6.8
2018-03-26T04:53:53.408Z,6.8
2018-03-26T04:54:55.020Z,7.0
2018-03-26T04:55:56.627Z,6.9
2018-03-26T04:56:58.236Z,6.8
2018-03-26T04:57:59.846Z,6.8
2018-03-26T04:59:01.451Z,6.9
2018-03-26T05:00:03.062Z,7.0
2018-03-26T05:01:04.669Z,6.9
2018-03-26T05:02:06.280Z,6.9
2018-03-26T05:03:07.894Z,6.8
2018-03-26T05:04:09.508Z,6.9
2018-03-26T05:05:11.118Z,7.0
2018-03-26T05:06:12.741Z,6.9
2018-03-26T05:07:14.354Z,6.9
2018-03-26T05:08:15.974Z,7.0
2018-03-26T05:09:17.580Z,6.9
2018-03-26T05:10:19.190Z,6.8
2018-03-26T05:11:20.805Z,6.9
2018-03-26T05:12:22.406Z,6.9
2018-03-26T05:13:24.024Z,6.9
2018-03-26T05:14:25.657Z,7.0
2018-03-26T05:15:27.243Z,6.9
2018-03-26T05:16:28.859Z,6.9
2018-03-26T05:17:30.470Z,7.0
2018-03-26T05:18:32.079Z,7.0
2018-03-26T05:19:33.694Z,6.9
2018-03-26T05:20:35.302Z,6.8
2018-03-26T05:21:36.917Z,6.9
2018-03-26T05:22:38.535Z,7.0
2018-03-26T05:23:40.141Z,7.2
2018-03-26T05:24:41.755Z,7.2
2018-03-26T05:25:43.388Z,7.3
2018-03-26T05:26:45.005Z,7.3
2018-03-26T05:27:46.614Z,7.3
2018-03-26T05:28:48.224Z,7.4
2018-03-26T05:29:49.835Z,7.5
2018-03-26T05:30:51.446Z,7.5
2018-03-26T05:31:53.062Z,7.5
2018-03-26T05:32:54.669Z,7.5
2018-03-26T05:33:56.286Z,7.6
2018-03-26T05:34:57.899Z,7.6
2018-03-26T05:35:59.515Z,7.6
2018-03-26T05:37:01.129Z,7.6
2018-03-26T05:38:02.744Z,7.7
2018-03-26T05:39:04.351Z,7.6
2018-03-26T05:40:05.966Z,7.6
2018-03-26T05:41:07.575Z,7.7
2018-03-26T05:42:09.204Z,7.7
2018-03-26T05:43:10.808Z,7.7
2018-03-26T05:44:12.435Z,7.8
2018-03-26T05:45:14.052Z,7.7
2018-03-26T05:46:15.660Z,7.7
2018-03-26T05:47:17.277Z,7.6
2018-03-26T05:48:18.901Z,7.7
2018-03-26T05:49:20.512Z,7.6
2018-03-26T05:50:22.131Z,7.6
2018-03-26T05:51:23.741Z,7.7
2018-03-26T05:52:25.354Z,7.6
2018-03-26T05:53:26.972Z,7.6
2018-03-26T05:54:28.589Z,7.6
2018-03-26T05:55:30.204Z,7.5
2018-03-26T05:56:31.815Z,7.5
2018-03-26T05:57:33.433Z,7.5
2018-03-26T05:58:35.052Z,7.6
2018-03-26T05:59:36.663Z,7.5
2018-03-26T06:00:38.285Z,7.5
2018-03-26T06:01:39.898Z,7.4
2018-03-26T06:02:41.511Z,7.6
2018-03-26T06:03:43.131Z,7.6
2018-03-26T06:04:44.745Z,7.7
2018-03-26T06:05:46.363Z,7.6
2018-03-26T06:06:47.984Z,7.7
2018-03-26T06:07:49.605Z,7.7
2018-03-26T06:08:51.216Z,7.7
2018-03-26T06:09:52.832Z,7.8
2018-03-26T06:10:54.454Z,7.8
2018-03-26T06:11:56.087Z,7.7
2018-03-26T06:12:57.683Z,7.8
2018-03-26T06:13:59.294Z,7.8
2018-03-26T06:15:00.915Z,7.8
2018-03-26T06:16:02.523Z,7.8
2018-03-26T06:17:04.154Z,7.7
2018-03-26T06:18:05.780Z,7.8
2018-03-26T06:19:07.397Z,7.8
2018-03-26T06:20:09.017Z,7.8
2018-03-26T06:21:10.628Z,7.7
2018-03-26T06:22:12.243Z,7.8
2018-03-26T06:23:13.862Z,7.8
2018-03-26T06:24:15.474Z,7.8
2018-03-26T06:25:17.086Z,7.8
2018-03-26T06:26:18.708Z,7.7
2018-03-26T06:27:20.333Z,7.7
2018-03-26T06:28:21.949Z,7.7
2018-03-26T06:29:23.562Z,7.8
2018-03-26T06:30:25.180Z,7.9
2018-03-26T06:31:26.792Z,7.8
2018-03-26T06:32:28.404Z,7.9
2018-03-26T06:33:30.021Z,8.0
2018-03-26T06:34:31.632Z,7.9
2018-03-26T06:35:33.832Z,8.0
2018-03-26T06:36:35.451Z,8.0
2018-03-26T06:37:37.062Z,8.1
2018-03-26T06:38:38.674Z,8.2
2018-03-26T06:39:40.296Z,8.4
2018-03-26T06:40:41.920Z,8.5
2018-03-26T06:41:44.424Z,8.6
2018-03-26T06:42:46.046Z,8.6
2018-03-26T06:43:47.673Z,8.4
2018-03-26T06:44:49.305Z,8.4
2018-03-26T06:45:50.924Z,8.5
2018-03-26T06:46:52.949Z,8.5
2018-03-26T06:47:54.562Z,8.5
2018-03-26T06:48:56.181Z,8.5
2018-03-26T06:49:57.796Z,8.6
2018-03-26T06:50:59.422Z,8.6
2018-03-26T06:52:01.031Z,8.7
2018-03-26T06:53:02.645Z,8.7
2018-03-26T06:54:04.266Z,8.7
2018-03-26T06:55:05.881Z,8.9
2018-03-26T06:56:08.024Z,9.0
2018-03-26T06:57:09.642Z,8.9
2018-03-26T06:58:11.252Z,8.8
2018-03-26T06:59:12.869Z,8.8
2018-03-26T07:00:14.488Z,8.8
2018-03-26T07:01:16.128Z,8.8
2018-03-26T07:02:17.760Z,8.9
2018-03-26T07:03:19.380Z,8.8
2018-03-26T07:04:20.995Z,8.7
2018-03-26T07:05:22.617Z,8.6
2018-03-26T07:06:24.227Z,8.6
2018-03-26T07:07:25.841Z,8.6
2018-03-26T07:08:27.462Z,8.7
2018-03-26T07:09:29.075Z,8.7
2018-03-26T07:10:30.696Z,8.6
2018-03-26T07:11:32.308Z,8.6
2018-03-26T07:12:33.940Z,8.6
2018-03-26T07:13:35.540Z,8.5
2018-03-26T07:14:37.154Z,8.6
2018-03-26T07:15:38.768Z,8.7
2018-03-26T07:16:40.391Z,8.7
2018-03-26T07:17:42.009Z,8.7
2018-03-26T07:18:43.631Z,8.7
2018-03-26T07:19:45.244Z,8.8
2018-03-26T07:20:46.858Z,8.7
2018-03-26T07:21:48.470Z,8.9
2018-03-26T07:22:50.089Z,8.8
2018-03-26T07:23:51.725Z,9.0
2018-03-26T07:24:53.340Z,8.9
2018-03-26T07:25:54.986Z,8.8
2018-03-26T07:26:56.599Z,9.0
2018-03-26T07:27:58.213Z,9.0
2018-03-26T07:28:59.828Z,9.0
2018-03-26T07:30:01.449Z,8.9
2018-03-26T07:31:03.059Z,9.0
2018-03-26T07:32:04.671Z,9.0
2018-03-26T07:33:06.294Z,9.0
2018-03-26T07:34:07.911Z,9.0
2018-03-26T07:35:09.528Z,9.0
2018-03-26T07:36:11.148Z,9.1
2018-03-26T07:37:12.764Z,8.9
2018-03-26T07:38:14.380Z,9.0
2018-03-26T07:39:16.003Z,9.0
2018-03-26T07:40:17.609Z,9.2
2018-03-26T07:41:19.275Z,9.2
2018-03-26T07:42:20.850Z,9.1
2018-03-26T07:43:22.475Z,9.4
2018-03-26T07:44:24.127Z,9.4
2018-03-26T07:45:25.749Z,9.7
2018-03-26T07:46:27.363Z,10.6
2018-03-26T07:47:28.988Z,11.0
2018-03-26T07:48:30.608Z,11.7
2018-03-26T07:49:32.230Z,11.7
2018-03-26T07:50:33.851Z,11.9
2018-03-26T07:51:35.468Z,12.1
2018-03-26T07:52:37.089Z,12.0
2018-03-26T07:53:38.711Z,12.3
2018-03-26T07:54:40.331Z,12.1
2018-03-26T07:55:41.959Z,12.2
2018-03-26T07:56:43.585Z,12.5
2018-03-26T07:57:45.209Z,12.7
2018-03-26T07:58:46.838Z,13.1
2018-03-26T07:59:48.459Z,13.3
2018-03-26T08:00:50.088Z,13.4
2018-03-26T08:01:51.717Z,12.9
2018-03-26T08:02:53.338Z,13.1
2018-03-26T08:03:54.961Z,13.1
2018-03-26T08:04:56.579Z,13.4
2018-03-26T08:05:58.204Z,13.8
2018-03-26T08:06:59.829Z,14.8
2018-03-26T08:08:01.446Z,14.9
2018-03-26T08:09:03.086Z,16.3
2018-03-26T08:10:04.713Z,17.5
2018-03-26T08:11:06.332Z,18.5
2018-03-26T08:12:07.958Z,19.5
2018-03-26T08:13:09.583Z,20.0
2018-03-26T08:14:11.214Z,20.5
2018-03-26T08:15:12.844Z,19.6
2018-03-26T08:16:14.479Z,19.5
2018-03-26T08:17:16.131Z,19.2
2018-03-26T08:18:17.734Z,19.5
2018-03-26T08:19:19.350Z,19.8
2018-03-26T08:20:20.985Z,20.4
2018-03-26T08:21:22.613Z,21.1
2018-03-26T08:22:24.241Z,21.8
2018-03-26T08:23:25.873Z,22.4
2018-03-26T08:24:27.503Z,21.5
2018-03-26T08:25:29.131Z,21.7
2018-03-26T08:26:30.758Z,22.1
2018-03-26T08:27:32.390Z,22.8
2018-03-26T08:28:34.018Z,23.2
2018-03-26T08:29:35.678Z,23.2
2018-03-26T08:30:37.314Z,23.1
2018-03-26T08:31:38.945Z,23.5
2018-03-26T08:32:40.576Z,23.7
2018-03-26T08:33:42.212Z,24.0
2018-03-26T08:34:43.837Z,22.9
2018-03-26T08:35:45.473Z,22.2
2018-03-26T08:36:47.102Z,22.0
2018-03-26T08:37:48.732Z,20.5
2018-03-26T08:38:50.363Z,19.8
2018-03-26T08:39:51.995Z,19.3
2018-03-26T08:40:53.627Z,18.4
2018-03-26T08:41:55.257Z,17.5
2018-03-26T08:42:56.893Z,17.8
2018-03-26T08:43:58.524Z,19.7
2018-03-26T08:45:00.150Z,20.5
2018-03-26T08:46:01.787Z,20.8
2018-03-26T08:47:03.412Z,21.2
2018-03-26T08:48:05.046Z,21.6
2018-03-26T08:49:06.688Z,21.1
2018-03-26T08:50:08.441Z,21.6
2018-03-26T08:51:09.962Z,21.2
2018-03-26T08:52:11.591Z,19.8
2018-03-26T08:53:13.230Z,20.3
2018-03-26T08:54:14.857Z,21.4
2018-03-26T08:55:16.490Z,22.2
2018-03-26T08:56:18.160Z,22.6
2018-03-26T08:57:19.750Z,23.3
2018-03-26T08:58:21.383Z,23.5
2018-03-26T08:59:23.014Z,23.8
2018-03-26T09:00:24.644Z,23.9
2018-03-26T09:01:26.281Z,24.6
2018-03-26T09:02:27.911Z,23.8
2018-03-26T09:03:29.555Z,24.2
2018-03-26T09:04:31.179Z,24.8
2018-03-26T09:05:32.811Z,24.2
2018-03-26T09:06:34.448Z,24.9
2018-03-26T09:07:36.085Z,24.9
2018-03-26T09:08:37.723Z,24.2
2018-03-26T09:09:39.381Z,21.8
2018-03-26T09:10:41.020Z,21.4
2018-03-26T09:11:42.656Z,21.2
2018-03-26T09:12:44.293Z,21.9
2018-03-26T09:13:45.927Z,22.6
2018-03-26T09:14:47.569Z,22.5
2018-03-26T09:15:49.195Z,23.1
2018-03-26T09:16:50.836Z,22.1
2018-03-26T09:17:52.465Z,21.9
2018-03-26T09:18:54.098Z,22.6
2018-03-26T09:19:55.736Z,23.2
2018-03-26T09:20:57.369Z,23.4
2018-03-26T09:21:59.008Z,23.7
2018-03-26T09:23:00.641Z,23.5
2018-03-26T09:24:02.276Z,23.0
2018-03-26T09:25:03.908Z,21.6
2018-03-26T09:26:05.599Z,19.9
2018-03-26T09:27:07.179Z,19.5
2018-03-26T09:28:08.822Z,19.2
2018-03-26T09:29:10.458Z,18.8
2018-03-26T09:30:12.097Z,19.1
2018-03-26T09:31:13.735Z,18.7
2018-03-26T09:32:15.368Z,18.6
2018-03-26T09:33:17.001Z,18.0
2018-03-26T09:34:18.637Z,17.8
2018-03-26T09:35:20.270Z,18.8
2018-03-26T09:36:21.905Z,19.5
2018-03-26T09:37:23.537Z,19.6
2018-03-26T09:38:25.167Z,19.2
2018-03-26T09:39:26.804Z,19.7
2018-03-26T09:40:28.481Z,20.1
2018-03-26T09:41:30.071Z,20.5
2018-03-26T09:42:31.700Z,20.7
2018-03-26T09:43:33.336Z,20.9
2018-03-26T09:44:34.972Z,21.6
2018-03-26T09:45:36.603Z,22.0
2018-03-26T09:46:38.235Z,22.4
2018-03-26T09:47:39.881Z,22.4
2018-03-26T09:48:41.508Z,22.5
2018-03-26T09:49:43.137Z,21.5
2018-03-26T09:50:44.778Z,20.6
2018-03-26T09:51:46.410Z,20.5
2018-03-26T09:52:48.044Z,19.8
2018-03-26T09:53:49.693Z,19.9
2018-03-26T09:54:51.325Z,20.3
2018-03-26T09:55:52.979Z,20.9
2018-03-26T09:56:54.621Z,20.6
2018-03-26T09:57:56.259Z,20.2
2018-03-26T09:58:57.891Z,20.0
2018-03-26T09:59:59.521Z,20.9
2018-03-26T10:01:01.155Z,21.7
2018-03-26T10:02:02.783Z,21.3
2018-03-26T10:03:04.423Z,21.5
2018-03-26T10:04:06.060Z,21.7
2018-03-26T10:05:07.698Z,21.6
2018-03-26T10:06:09.331Z,21.1
2018-03-26T10:07:10.962Z,21.3
2018-03-26T10:08:12.601Z,20.0
2018-03-26T10:09:14.231Z,18.4
2018-03-26T10:10:15.863Z,18.0
2018-03-26T10:11:17.506Z,16.9
2018-03-26T10:12:19.134Z,16.9
2018-03-26T10:13:20.771Z,17.0
2018-03-26T10:14:22.405Z,17.9
2018-03-26T10:15:24.569Z,18.9
2018-03-26T10:16:26.237Z,19.6
2018-03-26T10:17:27.881Z,20.4
2018-03-26T10:18:29.544Z,20.8
2018-03-26T10:19:31.213Z,21.7
2018-03-26T10:20:32.837Z,21.7
2018-03-26T10:21:34.476Z,20.9
2018-03-26T10:22:36.106Z,20.6
2018-03-26T10:23:37.739Z,20.2
2018-03-26T10:24:39.377Z,20.4
2018-03-26T10:25:41.016Z,20.5
2018-03-26T10:26:42.655Z,20.8
2018-03-26T10:27:44.286Z,21.2
2018-03-26T10:28:45.919Z,20.9
2018-03-26T10:29:47.551Z,20.6
2018-03-26T10:30:49.186Z,20.6
2018-03-26T10:31:50.817Z,20.6
2018-03-26T10:32:52.451Z,20.3
2018-03-26T10:33:54.083Z,20.0
2018-03-26T10:34:55.712Z,19.6
2018-03-26T10:35:57.348Z,18.3
2018-03-26T10:36:58.974Z,18.1
2018-03-26T10:38:00.607Z,17.4
2018-03-26T10:39:02.238Z,15.7
2018-03-26T10:40:03.866Z,15.3
2018-03-26T10:41:05.499Z,15.8
2018-03-26T10:42:07.130Z,15.8
2018-03-26T10:43:08.763Z,14.5
2018-03-26T10:44:10.430Z,13.9
2018-03-26T10:45:12.055Z,14.4
2018-03-26T10:46:13.705Z,15.2
2018-03-26T10:47:15.339Z,16.2
2018-03-26T10:48:16.984Z,16.7
2018-03-26T10:49:18.619Z,16.7
2018-03-26T10:50:20.263Z,16.8
2018-03-26T10:51:21.888Z,16.7
2018-03-26T10:52:23.515Z,16.3
2018-03-26T10:53:25.146Z,16.8
2018-03-26T10:54:26.773Z,17.0
2018-03-26T10:55:28.399Z,17.7
2018-03-26T10:56:30.031Z,18.0
2018-03-26T10:57:31.657Z,17.4
2018-03-26T10:58:33.288Z,17.7
2018-03-26T10:59:34.920Z,17.6
2018-03-26T11:00:36.544Z,16.8
2018-03-26T11:01:38.174Z,16.8
2018-03-26T11:02:39.804Z,16.5
2018-03-26T11:03:41.429Z,16.6
2018-03-26T11:04:43.054Z,16.6
2018-03-26T11:05:44.681Z,16.5
2018-03-26T11:06:46.310Z,15.8
2018-03-26T11:07:47.934Z,14.7
2018-03-26T11:08:49.567Z,14.6
2018-03-26T11:09:51.194Z,14.6
2018-03-26T11:10:53.489Z,15.2
2018-03-26T11:11:55.142Z,15.4
2018-03-26T11:12:56.786Z,15.8
2018-03-26T11:13:58.428Z,16.7
2018-03-26T11:15:00.052Z,17.6
2018-03-26T11:16:01.679Z,18.4
2018-03-26T11:17:03.312Z,18.8
2018-03-26T11:18:04.939Z,18.6
2018-03-26T11:19:06.569Z,17.8
2018-03-26T11:20:08.189Z,17.9
2018-03-26T11:21:09.817Z,17.7
2018-03-26T11:22:11.448Z,17.4
2018-03-26T11:23:13.075Z,16.7
2018-03-26T11:24:14.709Z,15.6
2018-03-26T11:25:16.331Z,15.8
2018-03-26T11:26:17.954Z,16.2
2018-03-26T11:27:19.585Z,16.4
2018-03-26T11:28:21.208Z,16.3
2018-03-26T11:29:22.859Z,16.2
2018-03-26T11:30:24.493Z,16.3
2018-03-26T11:31:26.117Z,16.3
2018-03-26T11:32:27.746Z,16.6
2018-03-26T11:33:29.369Z,17.2
2018-03-26T11:34:31.000Z,17.9
2018-03-26T11:35:32.623Z,18.6
2018-03-26T11:36:34.250Z,18.7
2018-03-26T11:37:35.879Z,18.6
2018-03-26T11:38:37.504Z,18.5
2018-03-26T11:39:39.129Z,18.5
2018-03-26T11:40:40.769Z,18.1
2018-03-26T11:41:42.401Z,17.9
2018-03-26T11:42:44.029Z,16.3
2018-03-26T11:43:45.675Z,16.1
2018-03-26T11:44:47.306Z,16.1
2018-03-26T11:45:48.932Z,16.4
2018-03-26T11:46:50.559Z,16.6
2018-03-26T11:47:52.181Z,16.8
2018-03-26T11:48:53.811Z,16.9
2018-03-26T11:49:55.441Z,16.4
2018-03-26T11:50:57.077Z,16.7
2018-03-26T11:51:58.716Z,16.4
2018-03-26T11:53:00.341Z,16.2
2018-03-26T11:54:01.964Z,16.3
2018-03-26T11:55:03.592Z,15.9
2018-03-26T11:56:05.215Z,16.1
2018-03-26T11:57:06.847Z,16.2
2018-03-26T11:58:08.469Z,16.5
2018-03-26T11:59:10.098Z,16.1
2018-03-26T12:00:11.722Z,16.2
2018-03-26T12:01:13.346Z,16.6
2018-03-26T12:02:14.985Z,16.8
2018-03-26T12:03:16.601Z,16.8
2018-03-26T12:04:18.223Z,16.5
2018-03-26T12:05:19.846Z,15.7
2018-03-26T12:06:21.477Z,15.4
2018-03-26T12:07:23.158Z,15.6
2018-03-26T12:08:24.783Z,15.4
2018-03-26T12:09:26.420Z,15.2
2018-03-26T12:10:28.040Z,15.2
2018-03-26T12:11:29.663Z,15.5
2018-03-26T12:12:31.288Z,15.7
2018-03-26T12:13:32.914Z,15.7
2018-03-26T12:14:34.587Z,16.2
2018-03-26T12:15:36.171Z,16.0
2018-03-26T12:16:37.797Z,15.6
2018-03-26T12:17:39.420Z,15.0
2018-03-26T12:18:41.039Z,14.1
2018-03-26T12:19:42.666Z,14.1
2018-03-26T12:20:44.291Z,14.2
2018-03-26T12:21:45.920Z,14.4
2018-03-26T12:22:47.549Z,14.3
2018-03-26T12:23:49.173Z,14.0
2018-03-26T12:24:50.837Z,14.1
2018-03-26T12:25:52.457Z,14.5
2018-03-26T12:26:54.091Z,14.9
2018-03-26T12:27:55.719Z,15.5
2018-03-26T12:28:57.342Z,15.8
2018-03-26T12:29:58.969Z,16.3
2018-03-26T12:31:00.587Z,16.2
2018-03-26T12:32:02.234Z,16.2
2018-03-26T12:33:03.837Z,15.9
2018-03-26T12:34:05.466Z,15.9
2018-03-26T12:35:07.101Z,15.8
2018-03-26T12:36:08.717Z,16.1
2018-03-26T12:37:10.345Z,16.4
2018-03-26T12:38:11.968Z,16.3
2018-03-26T12:39:13.595Z,16.6
2018-03-26T12:40:15.218Z,16.9
2018-03-26T12:41:16.847Z,17.3
2018-03-26T12:42:18.495Z,16.5
2018-03-26T12:43:20.126Z,16.4
2018-03-26T12:44:21.764Z,16.1
2018-03-26T12:45:23.401Z,15.6
2018-03-26T12:46:25.024Z,15.8
2018-03-26T12:47:26.656Z,16.3
2018-03-26T12:48:28.285Z,16.9
2018-03-26T12:49:29.910Z,17.1
2018-03-26T12:50:31.540Z,17.4
2018-03-26T12:51:33.159Z,17.6
2018-03-26T12:52:34.784Z,17.2
2018-03-26T12:53:36.406Z,17.0
2018-03-26T12:54:38.034Z,16.9
2018-03-26T12:55:39.665Z,16.5
2018-03-26T12:56:41.287Z,16.4
2018-03-26T12:57:42.911Z,16.3
2018-03-26T12:58:44.559Z,16.6
2018-03-26T12:59:46.195Z,16.2
2018-03-26T13:00:47.819Z,16.2
2018-03-26T13:01:49.451Z,16.0
2018-03-26T13:02:51.087Z,15.6
2018-03-26T13:03:52.703Z,15.9
2018-03-26T13:04:54.334Z,15.9
2018-03-26T13:05:55.953Z,15.9
2018-03-26T13:06:57.584Z,15.6
2018-03-26T13:07:59.208Z,15.5
2018-03-26T13:09:00.836Z,15.7
2018-03-26T13:10:02.456Z,15.9
2018-03-26T13:11:04.082Z,15.9
2018-03-26T13:12:05.728Z,15.9
2018-03-26T13:13:07.363Z,16.0
2018-03-26T13:14:08.988Z,16.2
2018-03-26T13:15:10.617Z,16.7
2018-03-26T13:16:12.246Z,16.0
2018-03-26T13:17:13.865Z,15.8
2018-03-26T13:18:15.490Z,16.4
2018-03-26T13:19:17.117Z,16.3
2018-03-26T13:20:18.739Z,16.5
2018-03-26T13:21:20.396Z,16.6
2018-03-26T13:22:22.018Z,16.6
2018-03-26T13:23:23.655Z,17.0
2018-03-26T13:24:25.278Z,17.0
2018-03-26T13:25:26.907Z,17.0
2018-03-26T13:26:28.535Z,17.2
2018-03-26T13:27:30.156Z,17.1
2018-03-26T13:28:32.584Z,17.2
2018-03-26T13:29:34.212Z,17.6
2018-03-26T13:30:35.835Z,17.6
2018-03-26T13:31:37.464Z,17.0
2018-03-26T13:32:39.088Z,17.3
2018-03-26T13:33:40.776Z,17.3
2018-03-26T13:34:42.339Z,17.3
2018-03-26T13:35:43.963Z,17.2
2018-03-26T13:36:45.598Z,16.7
2018-03-26T13:37:47.227Z,16.6
2018-03-26T13:38:48.848Z,16.0
2018-03-26T13:39:50.479Z,15.9
2018-03-26T13:40:52.103Z,15.9
2018-03-26T13:41:53.734Z,16.2
2018-03-26T13:42:55.356Z,16.6
2018-03-26T13:43:56.981Z,16.7
2018-03-26T13:44:58.607Z,17.1
2018-03-26T13:46:00.237Z,17.6
2018-03-26T13:47:01.869Z,17.7
2018-03-26T13:48:03.492Z,18.2
2018-03-26T13:49:05.113Z,17.6
2018-03-26T13:50:06.784Z,17.3
2018-03-26T13:51:08.367Z,17.2
2018-03-26T13:52:09.989Z,18.0
2018-03-26T13:53:11.638Z,18.4
2018-03-26T13:54:13.282Z,18.7
2018-03-26T13:55:14.928Z,18.7